Terminal Aerodrome Forecast
Issued by NWS St Louis, MO

Home | Current Version | Previous Version | Text Only | Print | Product List | Glossary On
Versions: 1 2 3 4 5 6 7 8 9 10 11 12 13 14 15 16 17
000
FTUS43 KLSX 151100
TAFCOU
TAF
KCOU 151120Z 1512/1612 14014G22KT P6SM SCT007 OVC015
     FM151300 13013KT P6SM SCT015
     FM151800 20014G22KT P6SM VCSH BKN025
     FM152300 25015G23KT P6SM OVC025
     FM160700 29015G25KT P6SM OVC015=

USA.gov is the U.S. government's official web portal to all federal, state and local government web resources and services.